Daytona Beach, Florida
Current Conditions -  °F | °C
As of 6:53 AM on Friday 19 Dec 2014 (Local Time) from KDAB Reporting Station
Broken Clouds Broken Clouds  
Wind Chill: 51°   Ceiling: 15000
Heat Index: 51°   Visibility: 10mi
Dew Point: 47°   Wind: 0mph
Humidity: 86%   Direction: NA
Pressure: 30.12"   Gusts: NA
Location:  29.2°N, 81.04°W
Report Text: KDAB 191153Z 00000KT 10SM BKN150 11/08 A3012 RMK AO2 SLP199 T01060083 10122 20100 53005
Loading
Personal Weather Stations






























Interactive Weather Map New forecast layout! Learn more

10-Day Weather Forecast

Advertisements
Track Severe Weather on mobile